createdAt,value
2023-02-23T00:01:44.909Z,100.00
2023-02-23T00:04:14.496Z,100.00
2023-02-23T00:06:43.884Z,100.00
2023-02-23T00:09:15.062Z,100.00
2023-02-23T00:11:44.864Z,100.00
2023-02-23T00:14:14.684Z,100.00
2023-02-23T00:16:47.134Z,100.00
2023-02-23T00:19:15.842Z,100.00
2023-02-23T00:21:45.544Z,100.00
2023-02-23T00:24:16.884Z,100.00
2023-02-23T00:26:48.263Z,100.00
2023-02-23T00:29:20.783Z,100.00
2023-02-23T00:31:50.061Z,100.00
2023-02-23T00:34:24.196Z,100.00
2023-02-23T00:36:55.497Z,100.00
2023-02-23T00:39:26.945Z,100.00
2023-02-23T00:41:57.231Z,100.00
2023-02-23T00:44:26.470Z,100.00
2023-02-23T00:46:55.967Z,100.00
2023-02-23T00:49:25.300Z,100.00
2023-02-23T00:51:55.077Z,100.00
2023-02-23T00:54:24.359Z,100.00
2023-02-23T00:56:53.710Z,100.00
2023-02-23T00:59:24.514Z,100.00
2023-02-23T01:01:54.073Z,100.00
2023-02-23T01:04:26.055Z,100.00
2023-02-23T01:06:57.061Z,100.00
2023-02-23T01:09:28.368Z,100.00
2023-02-23T01:12:00.020Z,100.00
2023-02-23T01:14:31.318Z,100.00
2023-02-23T01:17:01.378Z,100.00
2023-02-23T01:19:32.247Z,100.00
2023-02-23T01:22:04.664Z,100.00
2023-02-23T01:24:34.248Z,100.00
2023-02-23T01:27:05.338Z,100.00
2023-02-23T01:29:36.083Z,100.00
2023-02-23T01:32:05.819Z,100.00
2023-02-23T01:34:35.273Z,100.00
2023-02-23T01:37:04.810Z,100.00
2023-02-23T01:39:34.244Z,100.00
2023-02-23T01:42:05.427Z,100.00
2023-02-23T01:44:39.605Z,100.00
2023-02-23T01:47:08.995Z,100.00
2023-02-23T01:49:38.393Z,100.00
2023-02-23T01:52:12.578Z,100.00
2023-02-23T01:54:51.421Z,100.00
2023-02-23T01:57:24.504Z,100.00
2023-02-23T01:59:55.114Z,100.00
2023-02-23T02:02:29.190Z,100.00
2023-02-23T02:05:01.976Z,100.00
2023-02-23T02:07:34.324Z,100.00
2023-02-23T02:10:14.569Z,100.00
2023-02-23T02:12:51.333Z,100.00
2023-02-23T02:15:23.676Z,100.00
2023-02-23T02:18:19.008Z,100.00
2023-02-23T02:21:11.854Z,100.00
2023-02-23T02:24:04.301Z,100.00
2023-02-23T02:26:55.318Z,100.00
2023-02-23T02:29:56.118Z,100.00
2023-02-23T02:32:50.042Z,100.00
2023-02-23T02:35:47.090Z,100.00
2023-02-23T02:38:27.900Z,100.00
2023-02-23T02:41:09.147Z,100.00
2023-02-23T02:43:58.566Z,100.00
2023-02-23T02:46:33.659Z,100.00
2023-02-23T02:49:06.919Z,100.00
2023-02-23T02:51:49.092Z,100.00
2023-02-23T02:54:33.520Z,100.00
2023-02-23T02:57:04.972Z,100.00
2023-02-23T03:00:03.679Z,100.00
2023-02-23T03:02:52.870Z,100.00
2023-02-23T03:05:43.192Z,100.00
2023-02-23T03:09:06.752Z,100.00
2023-02-23T03:12:03.485Z,100.00
2023-02-23T03:15:09.308Z,100.00
2023-02-23T03:18:09.665Z,100.00
2023-02-23T03:21:02.806Z,100.00
2023-02-23T03:24:03.121Z,100.00
2023-02-23T03:26:56.507Z,100.00
2023-02-23T03:29:54.675Z,100.00
2023-02-23T03:32:48.161Z,100.00
2023-02-23T03:35:59.750Z,100.00
2023-02-23T03:39:02.621Z,100.00
2023-02-23T03:41:50.282Z,100.00
2023-02-23T03:44:40.481Z,100.00
2023-02-23T03:47:28.887Z,100.00
2023-02-23T03:50:17.317Z,100.00
2023-02-23T03:53:07.561Z,100.00
2023-02-23T03:55:56.916Z,100.00
2023-02-23T03:58:59.350Z,100.00
2023-02-23T04:01:46.759Z,100.00
2023-02-23T04:04:35.123Z,100.00
2023-02-23T04:07:22.997Z,100.00
2023-02-23T04:10:10.677Z,100.00
2023-02-23T04:13:03.471Z,100.00
2023-02-23T04:15:37.300Z,100.00
2023-02-23T04:18:07.602Z,100.00
2023-02-23T04:20:37.117Z,100.00
2023-02-23T04:23:06.403Z,100.00
2023-02-23T04:25:36.026Z,100.00
2023-02-23T04:28:05.410Z,100.00
2023-02-23T04:30:35.046Z,100.00
2023-02-23T04:33:04.486Z,100.00
2023-02-23T04:35:34.109Z,100.00
2023-02-23T04:38:03.655Z,100.00
2023-02-23T04:40:33.588Z,100.00
2023-02-23T04:43:02.870Z,100.00
2023-02-23T04:45:32.261Z,100.00
2023-02-23T04:48:01.878Z,100.00
2023-02-23T04:50:32.597Z,100.00
2023-02-23T04:53:02.023Z,100.00
2023-02-23T04:55:32.816Z,100.00
2023-02-23T04:58:03.281Z,100.00
2023-02-23T05:00:34.060Z,100.00
2023-02-23T05:03:03.468Z,100.00
2023-02-23T05:05:33.508Z,100.00
2023-02-23T05:08:02.914Z,100.00
2023-02-23T05:10:32.149Z,100.00
2023-02-23T05:13:01.483Z,100.00
2023-02-23T05:15:30.932Z,100.00
2023-02-23T05:18:00.392Z,100.00
2023-02-23T05:20:29.717Z,100.00
2023-02-23T05:22:59.438Z,100.00
2023-02-23T05:25:28.689Z,100.00
2023-02-23T05:27:58.103Z,100.00
2023-02-23T05:30:27.497Z,100.00
2023-02-23T05:32:56.966Z,100.00
2023-02-23T05:35:26.401Z,100.00
2023-02-23T05:37:55.981Z,100.00
2023-02-23T05:40:25.586Z,100.00
2023-02-23T05:42:58.373Z,100.00
2023-02-23T05:45:27.623Z,100.00
2023-02-23T05:47:57.419Z,100.00
2023-02-23T05:50:27.175Z,100.00
2023-02-23T05:52:56.710Z,100.00
2023-02-23T05:55:26.062Z,100.00
2023-02-23T05:57:56.165Z,100.00
2023-02-23T06:00:25.677Z,100.00
2023-02-23T06:02:55.674Z,100.00
2023-02-23T06:05:25.199Z,100.00
2023-02-23T06:07:54.413Z,100.00
2023-02-23T06:10:24.075Z,100.00
2023-02-23T06:12:53.296Z,100.00
2023-02-23T06:15:22.666Z,100.00
2023-02-23T06:17:51.948Z,100.00
2023-02-23T06:20:26.145Z,100.00
2023-02-23T06:22:55.475Z,100.00
2023-02-23T06:25:25.442Z,100.00
2023-02-23T06:27:57.558Z,100.00
2023-02-23T06:30:27.100Z,100.00
2023-02-23T06:32:56.783Z,100.00
2023-02-23T06:35:27.659Z,100.00
2023-02-23T06:37:57.428Z,100.00
2023-02-23T06:40:26.945Z,100.00
2023-02-23T06:42:56.543Z,100.00
2023-02-23T06:45:25.786Z,100.00
2023-02-23T06:47:55.389Z,100.00
2023-02-23T06:50:24.733Z,100.00
2023-02-23T06:52:54.461Z,100.00
2023-02-23T06:55:24.287Z,100.00
2023-02-23T06:57:54.585Z,100.00
2023-02-23T07:00:24.862Z,100.00
2023-02-23T07:02:54.187Z,100.00
2023-02-23T07:05:23.737Z,100.00
2023-02-23T07:07:53.308Z,100.00
2023-02-23T07:10:22.858Z,100.00
2023-02-23T07:12:54.192Z,100.00
2023-02-23T07:15:23.508Z,100.00
2023-02-23T07:17:53.009Z,100.00
2023-02-23T07:20:22.905Z,100.00
2023-02-23T07:22:52.771Z,100.00
2023-02-23T07:25:22.547Z,100.00
2023-02-23T07:27:55.703Z,100.00
2023-02-23T07:30:27.759Z,100.00
2023-02-23T07:33:01.278Z,100.00
2023-02-23T07:35:39.142Z,100.00
2023-02-23T07:38:18.848Z,100.00
2023-02-23T07:40:55.154Z,100.00
2023-02-23T07:43:39.107Z,100.00
2023-02-23T07:46:09.225Z,100.00
2023-02-23T07:48:42.625Z,100.00
2023-02-23T07:51:27.821Z,100.00
2023-02-23T07:53:57.488Z,100.00
2023-02-23T07:56:27.528Z,100.00
2023-02-23T07:58:56.834Z,100.00
2023-02-23T08:01:26.522Z,100.00
2023-02-23T08:03:56.069Z,100.00
2023-02-23T08:06:25.768Z,100.00
2023-02-23T08:08:55.648Z,100.00
2023-02-23T08:11:25.230Z,100.00
2023-02-23T08:13:55.185Z,100.00
2023-02-23T08:16:24.494Z,100.00
2023-02-23T08:18:54.054Z,100.00
2023-02-23T08:21:23.327Z,100.00
2023-02-23T08:23:52.658Z,100.00
2023-02-23T08:26:25.837Z,100.00
2023-02-23T08:28:56.124Z,100.00
2023-02-23T08:31:27.286Z,100.00
2023-02-23T08:33:56.666Z,100.00
2023-02-23T08:36:26.519Z,100.00
2023-02-23T08:38:55.736Z,100.00
2023-02-23T08:41:25.934Z,100.00
2023-02-23T08:43:55.660Z,100.00
2023-02-23T08:46:25.472Z,100.00
2023-02-23T08:48:54.711Z,100.00
2023-02-23T08:51:24.256Z,100.00
2023-02-23T08:53:53.769Z,100.00
2023-02-23T08:56:24.778Z,100.00
2023-02-23T08:58:54.298Z,100.00
2023-02-23T09:01:23.569Z,100.00
2023-02-23T09:03:53.122Z,100.00
2023-02-23T09:06:25.438Z,100.00
2023-02-23T09:08:56.256Z,100.00
2023-02-23T09:11:25.575Z,100.00
2023-02-23T09:13:55.531Z,100.00
2023-02-23T09:16:25.444Z,100.00
2023-02-23T09:18:54.953Z,100.00
2023-02-23T09:21:26.034Z,100.00
2023-02-23T09:23:56.250Z,100.00
2023-02-23T09:26:27.655Z,99.94
2023-02-23T09:28:58.828Z,99.85
2023-02-23T09:31:28.735Z,99.30
2023-02-23T09:33:59.642Z,99.06
2023-02-23T09:36:31.581Z,99.34
2023-02-23T09:39:01.485Z,99.47
2023-02-23T09:41:46.052Z,99.41
2023-02-23T09:44:39.745Z,99.38
2023-02-23T09:47:30.821Z,98.44
2023-02-23T09:50:05.823Z,98.88
2023-02-23T09:52:38.959Z,98.15
2023-02-23T09:55:11.685Z,96.97
2023-02-23T09:57:44.083Z,97.20
2023-02-23T10:00:19.527Z,95.98
2023-02-23T10:03:04.150Z,96.31
2023-02-23T10:05:36.575Z,96.26
2023-02-23T10:08:11.617Z,95.88
2023-02-23T10:11:02.339Z,96.02
2023-02-23T10:13:45.779Z,97.74
2023-02-23T10:16:36.396Z,95.03
2023-02-23T10:19:12.998Z,94.69
2023-02-23T10:21:45.075Z,95.31
2023-02-23T10:24:31.456Z,93.70
2023-02-23T10:27:20.915Z,95.42
2023-02-23T10:29:52.698Z,95.21
2023-02-23T10:32:25.321Z,94.84
2023-02-23T10:34:56.883Z,94.54
2023-02-23T10:37:27.704Z,94.28
2023-02-23T10:39:57.245Z,93.13
2023-02-23T10:42:30.069Z,93.51
2023-02-23T10:45:00.980Z,93.09
2023-02-23T10:47:32.518Z,91.06
2023-02-23T10:50:02.457Z,88.08
2023-02-23T10:52:41.710Z,87.30
2023-02-23T10:55:10.841Z,89.65
2023-02-23T10:57:41.315Z,89.92
2023-02-23T11:00:24.147Z,90.02
2023-02-23T11:02:52.650Z,90.00
2023-02-23T11:05:40.088Z,88.20
2023-02-23T11:08:33.269Z,86.71
2023-02-23T11:11:19.225Z,85.93
2023-02-23T11:13:52.238Z,82.62
2023-02-23T11:16:26.793Z,84.00
2023-02-23T11:19:01.575Z,80.01
2023-02-23T11:21:36.986Z,80.67
2023-02-23T11:24:09.550Z,81.07
2023-02-23T11:26:39.111Z,83.73
2023-02-23T11:29:29.680Z,84.98
2023-02-23T11:32:00.162Z,84.34
2023-02-23T11:34:33.147Z,84.05
2023-02-23T11:37:07.976Z,84.60
2023-02-23T11:39:38.912Z,82.97
2023-02-23T11:42:17.528Z,83.45
2023-02-23T11:44:52.343Z,82.82
2023-02-23T11:47:23.337Z,80.74
2023-02-23T11:49:53.212Z,81.43
2023-02-23T11:52:23.802Z,81.98
2023-02-23T11:54:58.903Z,83.34
2023-02-23T11:57:31.998Z,83.94
2023-02-23T12:00:04.600Z,83.81
2023-02-23T12:02:40.697Z,85.58
2023-02-23T12:05:25.331Z,85.92
2023-02-23T12:08:09.646Z,86.93
2023-02-23T12:10:51.183Z,86.19
2023-02-23T12:13:29.403Z,87.49
2023-02-23T12:16:21.741Z,88.44
2023-02-23T12:19:03.306Z,87.61
2023-02-23T12:21:35.915Z,87.46
2023-02-23T12:24:18.620Z,86.40
2023-02-23T12:26:52.730Z,88.54
2023-02-23T12:29:59.523Z,86.78
2023-02-23T12:32:32.492Z,86.82
2023-02-23T12:35:07.990Z,87.86
2023-02-23T12:37:46.140Z,88.33
2023-02-23T12:40:18.458Z,89.71
2023-02-23T12:42:56.847Z,89.83
2023-02-23T12:45:32.085Z,91.00
2023-02-23T12:48:10.042Z,92.14
2023-02-23T12:50:43.615Z,90.80
2023-02-23T12:53:19.037Z,89.80
2023-02-23T12:56:01.670Z,91.19
2023-02-23T12:58:50.304Z,90.44
2023-02-23T13:01:27.167Z,88.96
2023-02-23T13:04:08.992Z,90.20
2023-02-23T13:06:53.422Z,89.14
2023-02-23T13:09:29.208Z,89.17
2023-02-23T13:12:10.476Z,88.79
2023-02-23T13:15:08.338Z,88.51
2023-02-23T13:17:43.867Z,89.35
2023-02-23T13:20:28.764Z,89.71
2023-02-23T13:23:01.182Z,90.17
2023-02-23T13:25:54.201Z,88.28
2023-02-23T13:28:24.329Z,88.62
2023-02-23T13:30:53.914Z,88.80
2023-02-23T13:33:35.011Z,89.57
2023-02-23T13:35:58.267Z,89.70
2023-02-23T13:38:33.861Z,89.54
2023-02-23T13:41:12.806Z,90.41
2023-02-23T13:43:52.226Z,88.45
2023-02-23T13:46:48.465Z,88.97
2023-02-23T13:49:39.360Z,89.96
2023-02-23T13:52:14.566Z,87.97
2023-02-23T13:54:57.053Z,87.65
2023-02-23T13:57:28.238Z,87.65
2023-02-23T13:59:58.479Z,86.87
2023-02-23T14:02:38.882Z,86.21
2023-02-23T14:05:14.139Z,87.88
2023-02-23T14:07:45.221Z,87.78
2023-02-23T14:10:25.670Z,87.33
2023-02-23T14:13:07.356Z,86.70
2023-02-23T14:15:40.212Z,87.26
2023-02-23T14:18:26.253Z,87.04
2023-02-23T14:21:18.835Z,86.08
2023-02-23T14:24:15.107Z,86.24
2023-02-23T14:26:47.384Z,86.98
2023-02-23T14:29:20.548Z,87.32
2023-02-23T14:32:03.651Z,86.55
2023-02-23T14:34:52.305Z,87.31
2023-02-23T14:37:27.077Z,88.55
2023-02-23T14:40:00.710Z,87.24
2023-02-23T14:42:30.361Z,87.45
2023-02-23T14:45:02.763Z,87.24
2023-02-23T14:47:35.314Z,87.50
2023-02-23T14:50:04.883Z,87.84
2023-02-23T14:52:40.626Z,89.26
2023-02-23T14:55:15.753Z,89.11
2023-02-23T14:57:45.620Z,88.24
2023-02-23T15:00:31.034Z,88.21
2023-02-23T15:03:10.431Z,88.94
2023-02-23T15:05:54.808Z,88.78
2023-02-23T15:08:26.316Z,88.81
2023-02-23T15:11:07.486Z,88.99
2023-02-23T15:16:11.933Z,87.70
2023-02-23T15:18:44.064Z,88.15
2023-02-23T15:21:19.193Z,87.96
2023-02-23T15:23:54.837Z,87.53
2023-02-23T15:26:31.068Z,87.55
2023-02-23T15:29:14.638Z,87.99
2023-02-23T15:31:52.839Z,88.18
2023-02-23T15:34:25.166Z,86.80
2023-02-23T15:37:00.511Z,88.50
2023-02-23T15:39:48.215Z,88.74
2023-02-23T15:42:19.613Z,88.87
2023-02-23T15:44:57.529Z,87.53
2023-02-23T15:47:29.483Z,87.75
2023-02-23T15:50:05.620Z,89.04
2023-02-23T15:52:36.464Z,89.34
2023-02-23T15:55:10.246Z,89.22
2023-02-23T15:57:57.169Z,89.31
2023-02-23T16:00:40.808Z,89.15
2023-02-23T16:03:29.859Z,89.93
2023-02-23T16:06:11.323Z,90.55
2023-02-23T16:08:43.858Z,90.53
2023-02-23T16:11:16.031Z,90.54
2023-02-23T16:13:46.399Z,90.26
2023-02-23T16:16:19.657Z,90.25
2023-02-23T16:18:53.921Z,91.51
2023-02-23T16:21:25.300Z,90.95
2023-02-23T16:23:55.676Z,91.47
2023-02-23T16:26:29.459Z,92.00
2023-02-23T16:29:00.853Z,92.47
2023-02-23T16:31:48.597Z,92.54
2023-02-23T16:34:29.681Z,92.83
2023-02-23T16:37:01.626Z,92.83
2023-02-23T16:39:34.332Z,93.61
2023-02-23T16:42:04.016Z,93.66
2023-02-23T16:44:42.900Z,93.37
2023-02-23T16:47:08.246Z,94.24
2023-02-23T16:49:37.748Z,95.33
2023-02-23T16:52:11.933Z,95.68
2023-02-23T16:54:41.163Z,95.25
2023-02-23T16:57:14.079Z,95.00
2023-02-23T16:59:43.319Z,95.67
2023-02-23T17:02:14.138Z,96.72
2023-02-23T17:04:45.961Z,97.81
2023-02-23T17:07:17.195Z,98.79
2023-02-23T17:09:47.885Z,99.68
2023-02-23T17:12:21.933Z,100.00
2023-02-23T17:14:51.204Z,99.71
2023-02-23T17:17:21.814Z,100.00
2023-02-23T17:19:51.064Z,99.65
2023-02-23T17:22:20.436Z,99.79
2023-02-23T17:24:49.873Z,99.83
2023-02-23T17:27:19.211Z,100.00
2023-02-23T17:29:48.432Z,99.71
2023-02-23T17:32:18.229Z,99.86
2023-02-23T17:34:49.337Z,99.48
2023-02-23T17:37:21.824Z,99.76
2023-02-23T17:39:50.998Z,99.61
2023-02-23T17:42:20.674Z,99.07
2023-02-23T17:44:49.971Z,99.44
2023-02-23T17:47:20.047Z,98.57
2023-02-23T17:49:49.349Z,99.15
2023-02-23T17:52:19.605Z,99.41
2023-02-23T17:54:49.097Z,99.31
2023-02-23T17:57:18.696Z,99.11
2023-02-23T17:59:47.971Z,98.50
2023-02-23T18:02:20.574Z,98.91
2023-02-23T18:04:51.434Z,98.54
2023-02-23T18:07:22.280Z,97.22
2023-02-23T18:09:51.739Z,96.76
2023-02-23T18:12:21.776Z,95.67
2023-02-23T18:14:51.095Z,95.54
2023-02-23T18:17:20.680Z,95.56
2023-02-23T18:19:51.056Z,95.41
2023-02-23T18:22:20.871Z,95.64
2023-02-23T18:24:50.086Z,95.28
2023-02-23T18:27:19.423Z,95.41
2023-02-23T18:29:48.636Z,95.12
2023-02-23T18:32:18.421Z,95.38
2023-02-23T18:34:47.973Z,95.51
2023-02-23T18:37:18.888Z,94.90
2023-02-23T18:39:49.899Z,95.65
2023-02-23T18:42:19.404Z,95.02
2023-02-23T18:44:48.958Z,95.05
2023-02-23T18:47:18.299Z,95.05
2023-02-23T18:49:47.682Z,94.72
2023-02-23T18:52:17.022Z,95.12
2023-02-23T18:54:46.269Z,94.61
2023-02-23T18:57:16.034Z,93.01
2023-02-23T18:59:47.479Z,92.54
2023-02-23T19:02:18.713Z,93.10
2023-02-23T19:04:48.112Z,92.97
2023-02-23T19:07:18.738Z,93.14
2023-02-23T19:09:48.187Z,92.77
2023-02-23T19:12:17.408Z,91.43
2023-02-23T19:14:49.842Z,91.05
2023-02-23T19:17:17.946Z,91.50
2023-02-23T19:19:47.347Z,91.59
2023-02-23T19:22:17.191Z,90.24
2023-02-23T19:24:47.085Z,90.76
2023-02-23T19:27:17.612Z,91.05
2023-02-23T19:29:47.652Z,91.27
2023-02-23T19:32:18.101Z,90.92
2023-02-23T19:34:47.633Z,91.34
2023-02-23T19:37:16.876Z,91.07
2023-02-23T19:39:46.386Z,92.12
2023-02-23T19:42:17.322Z,91.33
2023-02-23T19:44:46.812Z,91.20
2023-02-23T19:47:16.120Z,91.53
2023-02-23T19:49:45.814Z,91.93
2023-02-23T19:52:15.149Z,92.13
2023-02-23T19:54:44.788Z,92.52
2023-02-23T19:57:14.112Z,92.88
2023-02-23T19:59:43.815Z,92.78
2023-02-23T20:02:13.339Z,92.68
2023-02-23T20:04:42.770Z,92.70
2023-02-23T20:07:12.048Z,93.26
2023-02-23T20:09:41.609Z,93.97
2023-02-23T20:12:10.978Z,93.94
2023-02-23T20:14:41.615Z,93.92
2023-02-23T20:17:12.514Z,94.66
2023-02-23T20:19:41.902Z,94.74
2023-02-23T20:22:11.309Z,95.14
2023-02-23T20:24:40.650Z,95.69
2023-02-23T20:27:10.259Z,95.81
2023-02-23T20:29:39.949Z,96.24
2023-02-23T20:32:09.716Z,96.72
2023-02-23T20:34:39.393Z,97.13
2023-02-23T20:37:09.150Z,97.70
2023-02-23T20:39:38.555Z,97.99
2023-02-23T20:44:48.294Z,97.89
2023-02-23T20:47:17.725Z,97.76
2023-02-23T20:49:46.990Z,98.18
2023-02-23T20:52:16.500Z,98.17
2023-02-23T20:54:46.148Z,97.93
2023-02-23T20:57:15.496Z,98.26
2023-02-23T20:59:45.239Z,97.95
2023-02-23T21:02:15.444Z,98.05
2023-02-23T21:04:45.322Z,97.73
2023-02-23T21:07:14.770Z,97.81
2023-02-23T21:09:44.214Z,96.88
2023-02-23T21:12:13.943Z,96.51
2023-02-23T21:14:43.653Z,96.66
2023-02-23T21:17:12.941Z,96.68
2023-02-23T21:19:42.233Z,97.16
2023-02-23T21:22:13.096Z,97.35
2023-02-23T21:24:43.510Z,98.03
2023-02-23T21:27:13.173Z,98.20
2023-02-23T21:29:43.823Z,98.41
2023-02-23T21:32:14.493Z,98.76
2023-02-23T21:34:45.929Z,99.90
2023-02-23T21:37:16.033Z,99.78
2023-02-23T21:39:47.072Z,99.90
2023-02-23T21:42:16.450Z,100.00
2023-02-23T21:44:50.025Z,100.00
2023-02-23T21:47:21.190Z,100.00
2023-02-23T21:49:55.256Z,100.00
2023-02-23T21:52:24.919Z,100.00
2023-02-23T21:54:55.095Z,100.00
2023-02-23T21:57:26.528Z,100.00
2023-02-23T21:59:57.564Z,100.00
2023-02-23T22:02:30.030Z,100.00
2023-02-23T22:05:01.330Z,100.00
2023-02-23T22:07:32.323Z,100.00
2023-02-23T22:10:03.236Z,100.00
2023-02-23T22:12:35.325Z,100.00
2023-02-23T22:15:09.612Z,100.00
2023-02-23T22:17:39.626Z,100.00
2023-02-23T22:20:23.037Z,99.59
2023-02-23T22:22:52.698Z,99.30
2023-02-23T22:25:22.099Z,97.76
2023-02-23T22:28:18.935Z,97.46
2023-02-23T22:30:52.170Z,97.68
2023-02-23T22:33:26.379Z,97.05
2023-02-23T22:35:58.165Z,95.45
2023-02-23T22:38:27.562Z,95.04
2023-02-23T22:40:57.308Z,94.04
2023-02-23T22:43:27.611Z,94.77
2023-02-23T22:45:58.412Z,95.27
2023-02-23T22:48:28.779Z,95.60
2023-02-23T22:50:58.920Z,95.04
2023-02-23T22:53:28.986Z,95.20
2023-02-23T22:55:59.614Z,95.30
2023-02-23T22:58:29.140Z,95.14
2023-02-23T23:01:05.801Z,94.51
2023-02-23T23:03:45.109Z,95.00
2023-02-23T23:06:22.208Z,95.52
2023-02-23T23:08:54.648Z,95.29
2023-02-23T23:11:26.775Z,95.44
2023-02-23T23:14:00.529Z,95.33
2023-02-23T23:16:33.370Z,95.49
2023-02-23T23:19:07.497Z,95.22
2023-02-23T23:21:37.367Z,95.53
2023-02-23T23:24:08.142Z,95.19
2023-02-23T23:26:39.784Z,94.86
2023-02-23T23:29:12.067Z,94.19
2023-02-23T23:31:45.950Z,95.61
2023-02-23T23:34:22.476Z,95.22
2023-02-23T23:36:53.372Z,95.15
2023-02-23T23:39:26.458Z,95.12
2023-02-23T23:41:55.767Z,94.70
2023-02-23T23:44:29.945Z,94.38
2023-02-23T23:46:59.684Z,94.82
2023-02-23T23:49:29.195Z,95.28
2023-02-23T23:51:58.399Z,94.74
2023-02-23T23:54:31.093Z,93.70
2023-02-23T23:57:01.982Z,93.45
2023-02-23T23:59:32.670Z,93.17
